sensor_id;sensor_type;location;lat;lon;timestamp;pressure;altitude;pressure_sealevel;temperature;humidity
5703;BME280;2876;51.738;10.050;2023-05-25T00:03:22;100118.81;;;9.55;100.00
5703;BME280;2876;51.738;10.050;2023-05-25T00:09:24;100116.69;;;9.81;100.00
5703;BME280;2876;51.738;10.050;2023-05-25T00:15:26;100114.22;;;10.03;100.00
5703;BME280;2876;51.738;10.050;2023-05-25T00:21:28;100112.41;;;10.26;100.00
5703;BME280;2876;51.738;10.050;2023-05-25T00:27:30;100106.13;;;10.42;100.00
5703;BME280;2876;51.738;10.050;2023-05-25T00:33:32;100108.84;;;10.57;100.00
5703;BME280;2876;51.738;10.050;2023-05-25T00:39:34;100107.34;;;10.77;100.00
5703;BME280;2876;51.738;10.050;2023-05-25T00:45:37;100103.63;;;10.78;100.00
5703;BME280;2876;51.738;10.050;2023-05-25T00:51:40;100095.88;;;10.83;100.00
5703;BME280;2876;51.738;10.050;2023-05-25T00:57:44;100107.94;;;11.02;100.00
5703;BME280;2876;51.738;10.050;2023-05-25T01:03:51;100098.91;;;10.80;100.00
5703;BME280;2876;51.738;10.050;2023-05-25T01:10:03;100097.44;;;10.78;100.00
5703;BME280;2876;51.738;10.050;2023-05-25T01:16:08;100095.72;;;10.62;100.00
5703;BME280;2876;51.738;10.050;2023-05-25T01:29:02;100114.94;;;10.51;100.00
5703;BME280;2876;51.738;10.050;2023-05-25T01:35:06;100103.66;;;10.55;100.00
5703;BME280;2876;51.738;10.050;2023-05-25T01:41:09;100102.34;;;10.51;100.00
5703;BME280;2876;51.738;10.050;2023-05-25T01:47:31;100096.50;;;10.48;100.00
5703;BME280;2876;51.738;10.050;2023-05-25T01:53:39;100103.66;;;10.55;100.00
5703;BME280;2876;51.738;10.050;2023-05-25T01:59:46;100104.16;;;10.36;100.00
5703;BME280;2876;51.738;10.050;2023-05-25T02:05:48;100101.53;;;10.28;100.00
5703;BME280;2876;51.738;10.050;2023-05-25T02:11:50;100105.50;;;10.09;100.00
5703;BME280;2876;51.738;10.050;2023-05-25T02:17:52;100096.03;;;9.90;100.00
5703;BME280;2876;51.738;10.050;2023-05-25T02:23:59;100108.09;;;9.55;100.00
5703;BME280;2876;51.738;10.050;2023-05-25T02:30:05;100098.69;;;9.11;100.00
5703;BME280;2876;51.738;10.050;2023-05-25T02:36:07;100101.38;;;9.11;100.00
5703;BME280;2876;51.738;10.050;2023-05-25T02:48:18;100111.75;;;9.06;100.00
5703;BME280;2876;51.738;10.050;2023-05-25T02:54:20;100110.91;;;9.14;100.00
5703;BME280;2876;51.738;10.050;2023-05-25T03:00:22;100120.38;;;9.33;100.00
5703;BME280;2876;51.738;10.050;2023-05-25T03:06:25;100103.34;;;9.73;100.00
5703;BME280;2876;51.738;10.050;2023-05-25T03:12:28;100121.13;;;9.97;100.00
5703;BME280;2876;51.738;10.050;2023-05-25T03:18:30;100121.16;;;10.20;100.00
5703;BME280;2876;51.738;10.050;2023-05-25T03:24:32;100137.53;;;10.33;100.00
5703;BME280;2876;51.738;10.050;2023-05-25T03:30:34;100128.28;;;10.82;100.00
5703;BME280;2876;51.738;10.050;2023-05-25T03:36:36;100137.75;;;10.70;100.00
5703;BME280;2876;51.738;10.050;2023-05-25T03:42:39;100134.84;;;10.56;100.00
5703;BME280;2876;51.738;10.050;2023-05-25T03:48:41;100147.13;;;10.74;100.00
5703;BME280;2876;51.738;10.050;2023-05-25T03:54:51;100127.03;;;10.70;100.00
5703;BME280;2876;51.738;10.050;2023-05-25T04:00:53;100145.25;;;10.74;100.00
5703;BME280;2876;51.738;10.050;2023-05-25T04:06:56;100141.59;;;10.90;100.00
5703;BME280;2876;51.738;10.050;2023-05-25T04:13:07;100146.09;;;10.75;100.00
5703;BME280;2876;51.738;10.050;2023-05-25T04:19:11;100155.66;;;10.77;100.00
5703;BME280;2876;51.738;10.050;2023-05-25T04:25:14;100168.34;;;10.83;99.63
5703;BME280;2876;51.738;10.050;2023-05-25T04:31:17;100169.38;;;10.97;98.28
5703;BME280;2876;51.738;10.050;2023-05-25T04:37:19;100169.16;;;10.84;98.83
5703;BME280;2876;51.738;10.050;2023-05-25T04:43:22;100182.88;;;10.89;98.98
5703;BME280;2876;51.738;10.050;2023-05-25T04:49:27;100188.66;;;11.01;98.50
5703;BME280;2876;51.738;10.050;2023-05-25T04:55:28;100186.44;;;11.04;98.96
5703;BME280;2876;51.738;10.050;2023-05-25T05:01:30;100190.81;;;11.20;99.21
5703;BME280;2876;51.738;10.050;2023-05-25T05:07:35;100199.28;;;11.32;98.00
5703;BME280;2876;51.738;10.050;2023-05-25T05:13:37;100203.16;;;11.29;98.41
5703;BME280;2876;51.738;10.050;2023-05-25T05:19:39;100213.00;;;11.37;98.12
5703;BME280;2876;51.738;10.050;2023-05-25T05:25:41;100211.53;;;11.64;97.21
5703;BME280;2876;51.738;10.050;2023-05-25T05:31:43;100226.63;;;11.65;96.19
5703;BME280;2876;51.738;10.050;2023-05-25T05:37:46;100234.66;;;11.88;95.01
5703;BME280;2876;51.738;10.050;2023-05-25T05:43:49;100241.13;;;11.93;94.96
5703;BME280;2876;51.738;10.050;2023-05-25T05:49:51;100248.53;;;12.21;92.11
5703;BME280;2876;51.738;10.050;2023-05-25T05:55:52;100262.53;;;12.31;92.23
5703;BME280;2876;51.738;10.050;2023-05-25T06:01:59;100268.59;;;12.18;92.47
5703;BME280;2876;51.738;10.050;2023-05-25T06:08:01;100267.84;;;12.61;90.06
5703;BME280;2876;51.738;10.050;2023-05-25T06:14:06;100268.56;;;12.69;88.22
5703;BME280;2876;51.738;10.050;2023-05-25T06:20:09;100282.28;;;12.75;87.88
5703;BME280;2876;51.738;10.050;2023-05-25T06:26:11;100283.91;;;12.69;87.87
5703;BME280;2876;51.738;10.050;2023-05-25T06:32:13;100279.56;;;12.53;89.06
5703;BME280;2876;51.738;10.050;2023-05-25T06:38:15;100292.00;;;12.90;89.00
5703;BME280;2876;51.738;10.050;2023-05-25T06:44:17;100293.41;;;13.23;85.67
5703;BME280;2876;51.738;10.050;2023-05-25T06:50:19;100298.53;;;13.03;85.32
5703;BME280;2876;51.738;10.050;2023-05-25T06:56:22;100301.47;;;13.23;85.20
5703;BME280;2876;51.738;10.050;2023-05-25T07:02:24;100300.75;;;13.14;84.70
5703;BME280;2876;51.738;10.050;2023-05-25T07:08:26;100298.91;;;12.78;85.16
5703;BME280;2876;51.738;10.050;2023-05-25T07:14:28;100303.47;;;12.78;84.61
5703;BME280;2876;51.738;10.050;2023-05-25T07:20:30;100302.72;;;13.05;84.09
5703;BME280;2876;51.738;10.050;2023-05-25T07:26:35;100312.25;;;13.08;83.14
5703;BME280;2876;51.738;10.050;2023-05-25T07:32:37;100302.84;;;12.97;83.46
5703;BME280;2876;51.738;10.050;2023-05-25T07:38:39;100306.78;;;13.37;81.29
5703;BME280;2876;51.738;10.050;2023-05-25T07:44:41;100313.56;;;13.12;82.34
5703;BME280;2876;51.738;10.050;2023-05-25T07:50:43;100314.47;;;13.19;81.99
5703;BME280;2876;51.738;10.050;2023-05-25T07:56:45;100321.00;;;13.53;81.87
5703;BME280;2876;51.738;10.050;2023-05-25T08:02:47;100332.09;;;13.36;80.86
5703;BME280;2876;51.738;10.050;2023-05-25T08:08:49;100330.22;;;13.86;79.04
5703;BME280;2876;51.738;10.050;2023-05-25T08:14:52;100342.44;;;13.61;80.32
5703;BME280;2876;51.738;10.050;2023-05-25T08:20:54;100337.25;;;13.81;80.02
5703;BME280;2876;51.738;10.050;2023-05-25T08:26:57;100339.06;;;13.52;81.73
5703;BME280;2876;51.738;10.050;2023-05-25T08:32:59;100345.44;;;13.44;81.37
5703;BME280;2876;51.738;10.050;2023-05-25T08:39:02;100339.47;;;14.05;80.15
5703;BME280;2876;51.738;10.050;2023-05-25T08:45:05;100346.00;;;13.89;77.91
5703;BME280;2876;51.738;10.050;2023-05-25T08:51:17;100345.72;;;14.40;78.73
5703;BME280;2876;51.738;10.050;2023-05-25T08:57:28;100351.41;;;14.52;76.26
5703;BME280;2876;51.738;10.050;2023-05-25T09:03:30;100365.22;;;14.70;74.83
5703;BME280;2876;51.738;10.050;2023-05-25T09:09:34;100358.69;;;15.06;74.52
5703;BME280;2876;51.738;10.050;2023-05-25T09:15:37;100355.28;;;15.98;72.21
5703;BME280;2876;51.738;10.050;2023-05-25T09:21:39;100359.38;;;16.47;69.06
5703;BME280;2876;51.738;10.050;2023-05-25T09:27:41;100354.25;;;17.29;67.69
5703;BME280;2876;51.738;10.050;2023-05-25T09:33:45;100348.56;;;17.94;64.31
5703;BME280;2876;51.738;10.050;2023-05-25T09:39:49;100353.16;;;19.40;59.49
5703;BME280;2876;51.738;10.050;2023-05-25T09:45:52;100362.53;;;20.21;57.55
5703;BME280;2876;51.738;10.050;2023-05-25T09:51:54;100355.72;;;20.71;58.35
5703;BME280;2876;51.738;10.050;2023-05-25T09:57:56;100358.25;;;21.01;51.56
5703;BME280;2876;51.738;10.050;2023-05-25T10:03:59;100357.06;;;20.97;55.49
5703;BME280;2876;51.738;10.050;2023-05-25T10:10:06;100352.94;;;21.23;52.63
5703;BME280;2876;51.738;10.050;2023-05-25T10:16:09;100364.47;;;19.37;59.48
5703;BME280;2876;51.738;10.050;2023-05-25T10:22:49;100357.75;;;19.93;57.78
5703;BME280;2876;51.738;10.050;2023-05-25T10:28:55;100349.94;;;20.20;57.30
5703;BME280;2876;51.738;10.050;2023-05-25T10:35:04;100341.75;;;19.73;59.62
5703;BME280;2876;51.738;10.050;2023-05-25T10:41:10;100345.44;;;19.37;59.14
5703;BME280;2876;51.738;10.050;2023-05-25T10:47:15;100347.34;;;20.14;58.79
5703;BME280;2876;51.738;10.050;2023-05-25T10:53:19;100343.50;;;20.85;57.17
5703;BME280;2876;51.738;10.050;2023-05-25T10:59:27;100339.69;;;20.74;57.17
5703;BME280;2876;51.738;10.050;2023-05-25T11:05:32;100329.69;;;21.49;56.60
5703;BME280;2876;51.738;10.050;2023-05-25T11:17:58;100331.75;;;22.09;53.95
5703;BME280;2876;51.738;10.050;2023-05-25T11:24:13;100329.47;;;22.84;49.76
5703;BME280;2876;51.738;10.050;2023-05-25T11:30:17;100332.31;;;22.11;52.53
5703;BME280;2876;51.738;10.050;2023-05-25T11:36:19;100323.44;;;23.03;49.09
5703;BME280;2876;51.738;10.050;2023-05-25T11:42:25;100323.31;;;22.71;46.10
5703;BME280;2876;51.738;10.050;2023-05-25T11:48:30;100320.81;;;23.68;45.65
5703;BME280;2876;51.738;10.050;2023-05-25T11:54:33;100320.34;;;24.18;45.11
5703;BME280;2876;51.738;10.050;2023-05-25T12:00:36;100311.50;;;23.42;46.42
5703;BME280;2876;51.738;10.050;2023-05-25T12:06:38;100314.81;;;22.68;49.02
5703;BME280;2876;51.738;10.050;2023-05-25T12:12:42;100305.50;;;22.69;48.41
5703;BME280;2876;51.738;10.050;2023-05-25T12:18:45;100320.19;;;23.07;48.97
5703;BME280;2876;51.738;10.050;2023-05-25T12:24:48;100307.28;;;23.29;46.97
5703;BME280;2876;51.738;10.050;2023-05-25T12:30:50;100313.00;;;24.87;43.48
5703;BME280;2876;51.738;10.050;2023-05-25T12:36:55;100308.44;;;25.18;41.49
5703;BME280;2876;51.738;10.050;2023-05-25T12:49:32;100312.22;;;26.29;39.81
5703;BME280;2876;51.738;10.050;2023-05-25T12:55:35;100312.94;;;26.70;39.62
5703;BME280;2876;51.738;10.050;2023-05-25T13:01:39;100303.81;;;26.80;40.06
5703;BME280;2876;51.738;10.050;2023-05-25T13:07:41;100296.41;;;26.70;39.08
5703;BME280;2876;51.738;10.050;2023-05-25T13:13:44;100286.47;;;25.74;39.58
5703;BME280;2876;51.738;10.050;2023-05-25T13:19:46;100279.31;;;25.68;42.06
5703;BME280;2876;51.738;10.050;2023-05-25T13:25:48;100291.16;;;25.58;40.96
5703;BME280;2876;51.738;10.050;2023-05-25T13:31:50;100284.00;;;25.72;41.17
5703;BME280;2876;51.738;10.050;2023-05-25T13:37:52;100277.97;;;25.86;39.04
5703;BME280;2876;51.738;10.050;2023-05-25T13:43:54;100277.44;;;24.39;41.21
5703;BME280;2876;51.738;10.050;2023-05-25T13:49:56;100270.81;;;25.28;41.90
5703;BME280;2876;51.738;10.050;2023-05-25T13:55:58;100268.03;;;25.74;38.74
5703;BME280;2876;51.738;10.050;2023-05-25T14:02:01;100279.72;;;26.41;38.82
5703;BME280;2876;51.738;10.050;2023-05-25T14:08:03;100271.31;;;26.82;37.44
5703;BME280;2876;51.738;10.050;2023-05-25T14:14:15;100266.56;;;26.28;38.37
5703;BME280;2876;51.738;10.050;2023-05-25T14:20:33;100271.94;;;26.69;39.80
5703;BME280;2876;51.738;10.050;2023-05-25T14:26:38;100261.22;;;25.26;41.07
5703;BME280;2876;51.738;10.050;2023-05-25T14:32:43;100262.28;;;25.71;38.94
5703;BME280;2876;51.738;10.050;2023-05-25T14:38:51;100262.00;;;25.93;40.82
5703;BME280;2876;51.738;10.050;2023-05-25T14:45:03;100265.78;;;24.90;40.63
5703;BME280;2876;51.738;10.050;2023-05-25T14:51:05;100264.38;;;24.72;40.38
5703;BME280;2876;51.738;10.050;2023-05-25T14:57:07;100255.69;;;25.16;42.62
5703;BME280;2876;51.738;10.050;2023-05-25T15:03:09;100270.00;;;25.48;40.83
5703;BME280;2876;51.738;10.050;2023-05-25T15:09:12;100271.63;;;25.60;40.02
5703;BME280;2876;51.738;10.050;2023-05-25T15:15:16;100269.41;;;25.92;41.35
5703;BME280;2876;51.738;10.050;2023-05-25T15:21:18;100265.31;;;25.79;38.33
5703;BME280;2876;51.738;10.050;2023-05-25T15:27:20;100266.69;;;25.31;40.30
5703;BME280;2876;51.738;10.050;2023-05-25T15:33:22;100263.66;;;25.27;39.70
5703;BME280;2876;51.738;10.050;2023-05-25T15:39:36;100254.81;;;25.00;39.81
5703;BME280;2876;51.738;10.050;2023-05-25T15:45:38;100253.78;;;25.26;39.88
5703;BME280;2876;51.738;10.050;2023-05-25T15:51:41;100249.53;;;24.68;41.07
5703;BME280;2876;51.738;10.050;2023-05-25T15:57:44;100241.69;;;24.29;43.02
5703;BME280;2876;51.738;10.050;2023-05-25T16:03:49;100251.94;;;23.96;42.62
5703;BME280;2876;51.738;10.050;2023-05-25T16:09:51;100254.06;;;23.52;43.35
5703;BME280;2876;51.738;10.050;2023-05-25T16:15:53;100252.00;;;24.12;42.36
5703;BME280;2876;51.738;10.050;2023-05-25T16:21:58;100230.94;;;23.38;44.17
5703;BME280;2876;51.738;10.050;2023-05-25T16:28:00;100244.88;;;24.11;42.86
5703;BME280;2876;51.738;10.050;2023-05-25T16:34:24;100239.16;;;24.80;40.81
5703;BME280;2876;51.738;10.050;2023-05-25T16:40:41;100251.72;;;26.24;37.97
5703;BME280;2876;51.738;10.050;2023-05-25T16:46:43;100248.47;;;27.26;35.56
5703;BME280;2876;51.738;10.050;2023-05-25T16:52:45;100247.38;;;27.56;36.04
5703;BME280;2876;51.738;10.050;2023-05-25T16:58:47;100248.72;;;27.59;35.59
5703;BME280;2876;51.738;10.050;2023-05-25T17:04:49;100241.38;;;27.15;36.54
5703;BME280;2876;51.738;10.050;2023-05-25T17:10:51;100234.38;;;27.62;35.66
5703;BME280;2876;51.738;10.050;2023-05-25T17:16:53;100250.47;;;28.31;34.72
5703;BME280;2876;51.738;10.050;2023-05-25T17:22:55;100247.47;;;27.80;34.87
5703;BME280;2876;51.738;10.050;2023-05-25T17:28:57;100249.53;;;28.41;34.52
5703;BME280;2876;51.738;10.050;2023-05-25T17:35:01;100241.19;;;28.22;34.19
5703;BME280;2876;51.738;10.050;2023-05-25T17:41:03;100243.53;;;28.10;33.95
5703;BME280;2876;51.738;10.050;2023-05-25T17:47:05;100245.03;;;27.73;34.72
5703;BME280;2876;51.738;10.050;2023-05-25T17:53:11;100240.78;;;27.23;36.08
5703;BME280;2876;51.738;10.050;2023-05-25T17:59:13;100239.84;;;27.33;35.84
5703;BME280;2876;51.738;10.050;2023-05-25T18:05:15;100249.44;;;26.51;37.51
5703;BME280;2876;51.738;10.050;2023-05-25T18:11:17;100250.56;;;26.40;38.34
5703;BME280;2876;51.738;10.050;2023-05-25T18:17:19;100257.03;;;26.05;38.86
5703;BME280;2876;51.738;10.050;2023-05-25T18:23:21;100253.22;;;25.29;41.01
5703;BME280;2876;51.738;10.050;2023-05-25T18:29:23;100249.84;;;24.14;42.94
5703;BME280;2876;51.738;10.050;2023-05-25T18:35:25;100252.16;;;23.20;44.44
5703;BME280;2876;51.738;10.050;2023-05-25T18:41:27;100255.69;;;21.84;47.85
5703;BME280;2876;51.738;10.050;2023-05-25T18:47:29;100247.88;;;19.88;53.95
5703;BME280;2876;51.738;10.050;2023-05-25T18:53:32;100246.44;;;18.96;58.54
5703;BME280;2876;51.738;10.050;2023-05-25T18:59:34;100252.13;;;17.66;62.95
5703;BME280;2876;51.738;10.050;2023-05-25T19:05:36;100242.16;;;16.79;66.21
5703;BME280;2876;51.738;10.050;2023-05-25T19:11:38;100245.06;;;16.32;68.50
5703;BME280;2876;51.738;10.050;2023-05-25T19:17:40;100247.09;;;15.32;71.97
5703;BME280;2876;51.738;10.050;2023-05-25T19:23:43;100253.00;;;14.55;74.97
5703;BME280;2876;51.738;10.050;2023-05-25T19:29:46;100256.06;;;14.04;77.04
5703;BME280;2876;51.738;10.050;2023-05-25T19:35:48;100251.97;;;13.80;79.32
5703;BME280;2876;51.738;10.050;2023-05-25T19:41:50;100264.19;;;13.26;80.98
5703;BME280;2876;51.738;10.050;2023-05-25T19:47:53;100260.22;;;13.01;82.02
5703;BME280;2876;51.738;10.050;2023-05-25T19:53:55;100254.25;;;12.48;84.56
5703;BME280;2876;51.738;10.050;2023-05-25T19:59:57;100254.81;;;12.43;84.31
5703;BME280;2876;51.738;10.050;2023-05-25T20:05:59;100256.06;;;12.11;86.96
5703;BME280;2876;51.738;10.050;2023-05-25T20:12:01;100256.44;;;11.93;87.80
5703;BME280;2876;51.738;10.050;2023-05-25T20:18:04;100256.22;;;11.80;88.31
5703;BME280;2876;51.738;10.050;2023-05-25T20:24:06;100263.72;;;11.69;89.44
5703;BME280;2876;51.738;10.050;2023-05-25T20:30:09;100268.34;;;11.76;89.37
5703;BME280;2876;51.738;10.050;2023-05-25T20:36:11;100269.78;;;11.86;89.22
5703;BME280;2876;51.738;10.050;2023-05-25T20:42:16;100264.94;;;11.82;88.91
5703;BME280;2876;51.738;10.050;2023-05-25T20:48:18;100259.72;;;11.80;88.70
5703;BME280;2876;51.738;10.050;2023-05-25T20:54:20;100256.75;;;11.75;88.66
5703;BME280;2876;51.738;10.050;2023-05-25T21:00:22;100258.53;;;11.68;89.01
5703;BME280;2876;51.738;10.050;2023-05-25T21:06:24;100272.06;;;11.75;88.95
5703;BME280;2876;51.738;10.050;2023-05-25T21:12:26;100263.03;;;11.53;89.52
5703;BME280;2876;51.738;10.050;2023-05-25T21:18:28;100267.31;;;11.62;88.92
5703;BME280;2876;51.738;10.050;2023-05-25T21:24:31;100278.16;;;11.31;89.69
5703;BME280;2876;51.738;10.050;2023-05-25T21:30:33;100268.44;;;11.30;90.33
5703;BME280;2876;51.738;10.050;2023-05-25T21:36:35;100283.34;;;11.17;91.34
5703;BME280;2876;51.738;10.050;2023-05-25T21:42:37;100288.44;;;11.27;91.46
5703;BME280;2876;51.738;10.050;2023-05-25T21:48:39;100291.81;;;11.44;91.02
5703;BME280;2876;51.738;10.050;2023-05-25T21:54:41;100292.72;;;11.59;89.77
5703;BME280;2876;51.738;10.050;2023-05-25T22:00:43;100307.72;;;11.68;89.28
5703;BME280;2876;51.738;10.050;2023-05-25T22:06:45;100313.78;;;11.48;90.31
5703;BME280;2876;51.738;10.050;2023-05-25T22:12:47;100308.31;;;11.79;89.53
5703;BME280;2876;51.738;10.050;2023-05-25T22:18:49;100310.59;;;11.67;89.65
5703;BME280;2876;51.738;10.050;2023-05-25T22:24:51;100310.59;;;11.67;89.41
5703;BME280;2876;51.738;10.050;2023-05-25T22:30:53;100317.25;;;11.56;89.30
5703;BME280;2876;51.738;10.050;2023-05-25T22:36:55;100313.66;;;11.64;88.50
5703;BME280;2876;51.738;10.050;2023-05-25T22:42:57;100314.56;;;11.56;88.77
5703;BME280;2876;51.738;10.050;2023-05-25T22:48:59;100324.44;;;11.41;89.34
5703;BME280;2876;51.738;10.050;2023-05-25T22:55:01;100323.53;;;11.26;90.34
5703;BME280;2876;51.738;10.050;2023-05-25T23:01:04;100325.66;;;11.07;91.29
5703;BME280;2876;51.738;10.050;2023-05-25T23:07:06;100329.31;;;11.14;91.41
5703;BME280;2876;51.738;10.050;2023-05-25T23:13:08;100334.22;;;11.11;91.69
5703;BME280;2876;51.738;10.050;2023-05-25T23:19:10;100339.63;;;11.03;91.74
5703;BME280;2876;51.738;10.050;2023-05-25T23:25:12;100332.00;;;10.91;91.68
5703;BME280;2876;51.738;10.050;2023-05-25T23:31:14;100337.34;;;10.91;91.56
5703;BME280;2876;51.738;10.050;2023-05-25T23:37:16;100330.78;;;10.94;91.40
5703;BME280;2876;51.738;10.050;2023-05-25T23:43:18;100336.41;;;11.07;91.05
5703;BME280;2876;51.738;10.050;2023-05-25T23:49:20;100325.00;;;10.82;91.69
5703;BME280;2876;51.738;10.050;2023-05-25T23:55:22;100334.41;;;10.78;91.70
